createdAt,value
2018-10-19T00:00:41.627Z,0.60
2018-10-19T00:03:08.419Z,0.50
2018-10-19T00:05:35.095Z,0.60
2018-10-19T00:08:02.245Z,0.60
2018-10-19T00:10:30.052Z,0.60
2018-10-19T00:12:57.020Z,0.60
2018-10-19T00:15:23.976Z,0.60
2018-10-19T00:17:51.439Z,0.60
2018-10-19T00:20:18.201Z,0.60
2018-10-19T00:22:45.145Z,0.60
2018-10-19T00:25:11.886Z,0.70
2018-10-19T00:27:38.608Z,0.60
2018-10-19T00:30:06.187Z,0.40
2018-10-19T00:32:33.028Z,0.40
2018-10-19T00:34:59.705Z,0.40
2018-10-19T00:37:26.431Z,0.40
2018-10-19T00:39:54.002Z,0.40
2018-10-19T00:42:20.928Z,0.40
2018-10-19T00:44:47.614Z,0.30
2018-10-19T00:47:15.094Z,0.30
2018-10-19T00:49:42.623Z,0.20
2018-10-19T00:52:10.132Z,0.20
2018-10-19T00:54:36.797Z,0.30
2018-10-19T00:57:04.627Z,0.30
2018-10-19T00:59:32.202Z,0.20
2018-10-19T01:01:58.885Z,0.20
2018-10-19T01:04:26.561Z,0.00
2018-10-19T01:06:53.284Z,0.00
2018-10-19T01:09:19.958Z,0.10
2018-10-19T01:11:46.748Z,0.20
2018-10-19T01:14:13.440Z,0.20
2018-10-19T01:16:40.119Z,0.20
2018-10-19T01:19:06.894Z,0.20
2018-10-19T01:21:35.545Z,0.10
2018-10-19T01:24:02.398Z,0.20
2018-10-19T01:26:30.751Z,0.10
2018-10-19T01:28:57.495Z,0.00
2018-10-19T01:31:24.174Z,0.10
2018-10-19T01:33:50.856Z,0.00
2018-10-19T01:36:17.528Z,-0.10
2018-10-19T01:38:45.201Z,-0.10
2018-10-19T01:41:12.211Z,-0.10
2018-10-19T01:43:39.577Z,-0.20
2018-10-19T01:46:06.279Z,-0.20
2018-10-19T01:48:33.687Z,-0.30
2018-10-19T01:51:01.254Z,-0.30
2018-10-19T01:53:28.388Z,-0.20
2018-10-19T01:55:55.090Z,-0.30
2018-10-19T01:58:22.553Z,-0.30
2018-10-19T02:00:49.209Z,-0.30
2018-10-19T02:03:17.795Z,-0.30
2018-10-19T02:05:44.637Z,-0.40
2018-10-19T02:08:11.289Z,-0.40
2018-10-19T02:10:37.976Z,-0.40
2018-10-19T02:13:05.683Z,-0.40
2018-10-19T02:15:33.639Z,-0.50
2018-10-19T02:18:00.343Z,-0.50
2018-10-19T02:20:28.771Z,-0.50
2018-10-19T02:22:55.644Z,-0.50
2018-10-19T02:25:22.320Z,-0.50
2018-10-19T02:27:49.086Z,-0.40
2018-10-19T02:30:15.807Z,-0.40
2018-10-19T02:32:43.400Z,-0.40
2018-10-19T02:35:11.108Z,-0.40
2018-10-19T02:37:38.970Z,-0.50
2018-10-19T02:40:05.813Z,-0.40
2018-10-19T02:42:33.561Z,-0.50
2018-10-19T02:45:00.597Z,-0.50
2018-10-19T02:47:27.363Z,-0.50
2018-10-19T02:49:54.965Z,-0.60
2018-10-19T02:52:21.701Z,-0.60
2018-10-19T02:54:48.651Z,-0.60
2018-10-19T02:57:16.281Z,-0.70
2018-10-19T02:59:42.931Z,-0.70
2018-10-19T03:02:09.768Z,-0.60
2018-10-19T03:04:37.196Z,-0.50
2018-10-19T03:07:03.980Z,-0.50
2018-10-19T03:09:30.820Z,-0.50
2018-10-19T03:11:58.222Z,-0.60
2018-10-19T03:14:25.236Z,-0.60
2018-10-19T03:16:52.077Z,-0.60
2018-10-19T03:19:18.746Z,-0.60
2018-10-19T03:21:46.344Z,-0.60
2018-10-19T03:24:13.224Z,-0.60
2018-10-19T03:26:40.823Z,-0.60
2018-10-19T03:29:08.698Z,-0.70
2018-10-19T03:31:35.519Z,-0.70
2018-10-19T03:34:02.876Z,-0.80
2018-10-19T03:36:29.569Z,-0.70
2018-10-19T03:38:56.438Z,-0.70
2018-10-19T03:41:24.111Z,-0.70
2018-10-19T03:43:51.440Z,-0.70
2018-10-19T03:46:18.187Z,-0.80
2018-10-19T03:48:44.923Z,-0.90
2018-10-19T03:51:12.700Z,-0.90
2018-10-19T03:53:39.842Z,-0.90
2018-10-19T03:56:06.519Z,-1.00
2018-10-19T03:58:34.338Z,-0.90
2018-10-19T04:01:01.133Z,-0.90
2018-10-19T04:03:27.816Z,-1.00
2018-10-19T04:05:54.604Z,-1.00
2018-10-19T04:08:21.273Z,-1.00
2018-10-19T04:10:49.412Z,-1.00
2018-10-19T04:13:16.309Z,-1.00
2018-10-19T04:15:43.002Z,-0.90
2018-10-19T04:18:09.668Z,-1.10
2018-10-19T04:20:37.246Z,-1.10
2018-10-19T04:23:03.974Z,-1.10
2018-10-19T04:25:30.686Z,-1.10
2018-10-19T04:27:57.471Z,-1.10
2018-10-19T04:30:24.470Z,-1.00
2018-10-19T04:32:52.931Z,-1.00
2018-10-19T04:35:20.029Z,-1.00
2018-10-19T04:37:47.823Z,-1.20
2018-10-19T04:40:15.485Z,-1.20
2018-10-19T04:42:42.326Z,-1.20
2018-10-19T04:45:09.128Z,-1.20
2018-10-19T04:47:35.837Z,-1.20
2018-10-19T04:50:02.752Z,-1.10
2018-10-19T04:52:29.461Z,-1.10
2018-10-19T04:54:56.953Z,-1.10
2018-10-19T04:57:23.794Z,-1.10
2018-10-19T04:59:50.531Z,-1.10
2018-10-19T05:02:17.270Z,-1.00
2018-10-19T05:04:44.168Z,-1.10
2018-10-19T05:07:10.856Z,-1.20
2018-10-19T05:09:37.699Z,-1.20
2018-10-19T05:12:05.050Z,-1.30
2018-10-19T05:14:32.612Z,-1.20
2018-10-19T05:16:59.403Z,-1.20
2018-10-19T05:19:26.327Z,-1.20
2018-10-19T05:21:53.550Z,-1.30
2018-10-19T05:24:20.369Z,-1.30
2018-10-19T05:26:47.850Z,-1.20
2018-10-19T05:29:14.806Z,-1.20
2018-10-19T05:31:41.943Z,-1.30
2018-10-19T05:34:11.163Z,-1.40
2018-10-19T05:36:38.603Z,-1.40
2018-10-19T05:39:05.547Z,-1.40
2018-10-19T05:41:32.292Z,-1.30
2018-10-19T05:43:59.334Z,-1.40
2018-10-19T05:46:26.687Z,-1.30
2018-10-19T05:48:53.532Z,-1.20
2018-10-19T05:51:20.254Z,-1.30
2018-10-19T05:53:47.935Z,-1.30
2018-10-19T05:56:14.682Z,-1.40
2018-10-19T05:58:42.128Z,-1.40
2018-10-19T06:01:08.971Z,-1.40
2018-10-19T06:03:35.717Z,-1.30
2018-10-19T06:06:02.451Z,-1.30
2018-10-19T06:08:29.195Z,-1.30
2018-10-19T06:10:55.938Z,-1.30
2018-10-19T06:13:22.674Z,-1.20
2018-10-19T06:15:49.565Z,-1.10
2018-10-19T06:18:16.357Z,-1.10
2018-10-19T06:20:43.102Z,-1.00
2018-10-19T06:23:09.960Z,-1.00
2018-10-19T06:25:36.681Z,-0.90
2018-10-19T06:28:03.528Z,-0.90
2018-10-19T06:30:30.372Z,-1.00
2018-10-19T06:32:57.107Z,-1.00
2018-10-19T06:35:23.849Z,-0.90
2018-10-19T06:37:50.561Z,-0.90
2018-10-19T06:40:18.050Z,-0.80
2018-10-19T06:42:44.789Z,-0.80
2018-10-19T06:45:11.937Z,-0.70
2018-10-19T06:47:38.676Z,-0.70
2018-10-19T06:50:05.409Z,-0.60
2018-10-19T06:52:33.081Z,-0.60
2018-10-19T06:54:59.822Z,-0.60
2018-10-19T06:57:26.561Z,-0.60
2018-10-19T06:59:53.610Z,-0.60
2018-10-19T07:02:20.351Z,-0.50
2018-10-19T07:04:47.089Z,-0.40
2018-10-19T07:07:14.034Z,-0.40
2018-10-19T07:09:40.774Z,-0.30
2018-10-19T07:12:07.700Z,-0.20
2018-10-19T07:14:34.460Z,-0.10
2018-10-19T07:17:01.228Z,0.00
2018-10-19T07:19:27.944Z,0.00
2018-10-19T07:21:54.683Z,0.30
2018-10-19T07:24:21.400Z,1.10
2018-10-19T07:26:48.162Z,2.40
2018-10-19T07:29:14.965Z,3.50
2018-10-19T07:31:41.640Z,4.70
2018-10-19T07:34:08.343Z,5.60
2018-10-19T07:36:35.077Z,6.30
2018-10-19T07:39:01.766Z,6.60
2018-10-19T07:41:28.557Z,6.10
2018-10-19T07:43:55.226Z,5.50
2018-10-19T07:46:22.640Z,4.20
2018-10-19T07:48:49.517Z,4.20
2018-10-19T07:51:16.898Z,3.20
2018-10-19T07:53:43.559Z,3.20
2018-10-19T07:56:11.123Z,2.60
2018-10-19T07:58:37.820Z,2.50
2018-10-19T08:01:04.578Z,2.40
2018-10-19T08:03:31.305Z,2.30
2018-10-19T08:05:57.956Z,2.30
2018-10-19T08:08:24.653Z,2.20
2018-10-19T08:10:52.267Z,2.30
2018-10-19T08:13:18.932Z,2.30
2018-10-19T08:15:45.626Z,2.30
2018-10-19T08:18:12.319Z,2.30
2018-10-19T08:20:39.024Z,2.30
2018-10-19T08:23:05.792Z,2.30
2018-10-19T08:25:32.431Z,2.30
2018-10-19T08:27:59.083Z,2.20
2018-10-19T08:30:25.799Z,2.30
2018-10-19T08:32:52.495Z,2.30
2018-10-19T08:35:19.212Z,2.50
2018-10-19T08:37:46.805Z,2.50
2018-10-19T08:40:13.464Z,2.50
2018-10-19T08:42:40.168Z,2.50
2018-10-19T08:45:07.160Z,2.50
2018-10-19T08:47:34.022Z,2.60
2018-10-19T08:50:00.821Z,2.90
2018-10-19T08:52:27.764Z,3.00
2018-10-19T08:54:54.518Z,3.20
2018-10-19T08:57:21.242Z,3.30
2018-10-19T08:59:47.984Z,3.30
2018-10-19T09:02:14.721Z,3.40
2018-10-19T09:04:41.464Z,3.50
2018-10-19T09:07:08.406Z,3.60
2018-10-19T09:09:35.972Z,3.70
2018-10-19T09:12:02.811Z,3.70
2018-10-19T09:14:33.647Z,3.80
2018-10-19T09:17:00.403Z,3.90
2018-10-19T09:19:27.102Z,4.10
2018-10-19T09:21:54.792Z,4.40
2018-10-19T09:24:21.450Z,4.40
2018-10-19T09:26:48.164Z,4.50
2018-10-19T09:29:15.119Z,4.50
2018-10-19T09:31:41.957Z,4.60
2018-10-19T09:34:08.693Z,4.70
2018-10-19T09:36:35.677Z,4.80
2018-10-19T09:39:02.539Z,4.90
2018-10-19T09:41:29.258Z,5.00
2018-10-19T09:43:56.170Z,5.10
2018-10-19T09:46:22.908Z,5.20
2018-10-19T09:48:49.563Z,5.30
2018-10-19T09:51:16.318Z,5.50
2018-10-19T09:53:43.215Z,5.60
2018-10-19T09:56:10.033Z,5.70
2018-10-19T09:58:37.427Z,5.90
2018-10-19T10:01:04.487Z,5.90
2018-10-19T10:03:31.193Z,6.10
2018-10-19T10:05:58.676Z,6.40
2018-10-19T10:08:25.415Z,6.30
2018-10-19T10:10:52.195Z,6.50
2018-10-19T10:13:19.001Z,6.60
2018-10-19T10:15:45.809Z,6.80
2018-10-19T10:18:12.458Z,6.90
2018-10-19T10:20:40.040Z,7.10
2018-10-19T10:23:06.781Z,7.00
2018-10-19T10:25:33.626Z,7.10
2018-10-19T10:28:00.503Z,7.20
2018-10-19T10:30:27.935Z,7.30
2018-10-19T10:32:54.665Z,7.40
2018-10-19T10:35:21.405Z,7.50
2018-10-19T10:37:48.142Z,7.60
2018-10-19T10:40:15.179Z,7.70
2018-10-19T10:42:42.041Z,7.80
2018-10-19T10:45:08.774Z,7.90
2018-10-19T10:47:35.717Z,8.00
2018-10-19T10:50:02.463Z,8.10
2018-10-19T10:52:29.184Z,8.10
2018-10-19T10:57:47.761Z,8.30
2018-10-19T11:00:14.473Z,8.40
2018-10-19T11:02:41.960Z,8.60
2018-10-19T11:05:08.616Z,8.60
2018-10-19T11:07:35.588Z,8.60
2018-10-19T11:10:02.220Z,8.70
2018-10-19T11:12:29.136Z,8.80
2018-10-19T11:14:55.977Z,8.90
2018-10-19T11:17:22.715Z,9.00
2018-10-19T11:19:49.455Z,9.10
2018-10-19T11:22:16.441Z,9.20
2018-10-19T11:24:43.245Z,9.30
2018-10-19T11:27:09.984Z,9.40
2018-10-19T11:29:37.035Z,9.50
2018-10-19T11:32:03.702Z,9.50
2018-10-19T11:34:30.485Z,9.60
2018-10-19T11:36:58.072Z,9.70
2018-10-19T11:39:25.633Z,9.80
2018-10-19T11:41:52.372Z,9.70
2018-10-19T11:44:19.420Z,9.70
2018-10-19T11:46:46.158Z,9.90
2018-10-19T11:49:12.947Z,9.90
2018-10-19T11:51:39.845Z,9.90
2018-10-19T11:54:06.585Z,10.00
2018-10-19T11:56:33.323Z,10.00
2018-10-19T11:59:00.168Z,10.00
2018-10-19T12:01:26.911Z,10.00
2018-10-19T12:03:53.654Z,10.10
2018-10-19T12:06:20.480Z,10.10
2018-10-19T12:08:47.164Z,10.10
2018-10-19T12:11:13.819Z,10.20
2018-10-19T12:13:40.523Z,10.20
2018-10-19T12:16:07.253Z,10.20
2018-10-19T12:18:33.904Z,10.30
2018-10-19T12:21:00.770Z,10.40
2018-10-19T12:23:27.439Z,10.30
2018-10-19T12:25:54.902Z,10.30
2018-10-19T12:28:21.629Z,10.30
2018-10-19T12:30:48.295Z,10.40
2018-10-19T12:33:15.769Z,10.20
2018-10-19T12:35:43.374Z,10.30
2018-10-19T12:38:10.051Z,10.30
2018-10-19T12:40:36.766Z,10.30
2018-10-19T12:43:03.506Z,10.30
2018-10-19T12:45:30.983Z,10.30
2018-10-19T12:47:58.449Z,10.30
2018-10-19T12:50:25.843Z,10.20
2018-10-19T12:52:52.470Z,10.20
2018-10-19T12:55:19.286Z,10.30
2018-10-19T12:57:45.925Z,10.30
2018-10-19T13:00:12.561Z,10.20
2018-10-19T13:02:39.351Z,10.40
2018-10-19T13:05:06.029Z,10.40
2018-10-19T13:07:33.422Z,10.40
2018-10-19T13:10:00.143Z,10.40
2018-10-19T13:12:26.812Z,10.50
2018-10-19T13:14:53.570Z,10.40
2018-10-19T13:17:20.367Z,10.40
2018-10-19T13:19:47.106Z,10.50
2018-10-19T13:22:13.847Z,10.30
2018-10-19T13:24:40.789Z,10.30
2018-10-19T13:27:07.591Z,10.30
2018-10-19T13:29:34.373Z,10.30
2018-10-19T13:32:01.119Z,10.20
2018-10-19T13:34:27.898Z,10.10
2018-10-19T13:36:54.696Z,10.00
2018-10-19T13:39:21.541Z,10.10
2018-10-19T13:41:48.387Z,10.10
2018-10-19T13:44:15.742Z,10.00
2018-10-19T13:46:42.479Z,10.00
2018-10-19T13:49:09.424Z,9.90
2018-10-19T13:51:36.269Z,9.90
2018-10-19T13:54:03.012Z,9.90
2018-10-19T13:56:29.855Z,9.80
2018-10-19T13:58:56.824Z,9.80
2018-10-19T14:01:23.639Z,9.70
2018-10-19T14:03:50.378Z,9.60
2018-10-19T14:06:17.323Z,9.60
2018-10-19T14:08:44.171Z,9.50
2018-10-19T14:11:10.988Z,9.40
2018-10-19T14:13:37.748Z,9.20
2018-10-19T14:16:04.590Z,9.20
2018-10-19T14:18:31.409Z,9.10
2018-10-19T14:20:58.911Z,8.80
2018-10-19T14:23:25.632Z,8.80
2018-10-19T14:25:52.453Z,8.70
2018-10-19T14:28:20.342Z,8.50
2018-10-19T14:30:47.185Z,8.50
2018-10-19T14:33:14.526Z,8.40
2018-10-19T14:35:41.994Z,8.20
2018-10-19T14:38:08.712Z,8.20
2018-10-19T14:40:36.378Z,8.00
2018-10-19T14:43:03.141Z,8.00
2018-10-19T14:45:29.879Z,7.90
2018-10-19T14:47:56.927Z,7.80
2018-10-19T14:50:23.665Z,7.70
2018-10-19T14:52:50.513Z,7.60
2018-10-19T14:55:17.353Z,7.40
2018-10-19T14:57:44.091Z,7.30
2018-10-19T15:00:10.837Z,7.20
2018-10-19T15:02:37.985Z,7.10
2018-10-19T15:05:04.864Z,7.00
2018-10-19T15:07:31.565Z,6.90
2018-10-19T15:09:58.559Z,6.80
2018-10-19T15:12:25.048Z,6.70
2018-10-19T15:14:52.093Z,6.60
2018-10-19T15:17:18.837Z,6.60
2018-10-19T15:19:45.576Z,6.50
2018-10-19T15:22:12.525Z,6.40
2018-10-19T15:24:39.580Z,6.20
2018-10-19T15:27:06.800Z,6.10
2018-10-19T15:29:33.685Z,5.80
2018-10-19T15:32:00.476Z,5.70
2018-10-19T15:34:27.248Z,5.60
2018-10-19T15:36:53.986Z,5.50
2018-10-19T15:39:27.693Z,5.40
2018-10-19T15:41:54.870Z,5.20
2018-10-19T15:44:22.604Z,5.00
2018-10-19T15:46:49.347Z,5.00
2018-10-19T15:49:16.597Z,4.90
2018-10-19T15:51:43.440Z,4.80
2018-10-19T15:54:10.198Z,4.60
2018-10-19T15:56:36.902Z,4.60
2018-10-19T15:59:04.481Z,4.50
2018-10-19T16:01:31.321Z,4.40
2018-10-19T16:03:58.067Z,4.40
2018-10-19T16:06:26.342Z,4.20
2018-10-19T16:08:53.321Z,4.20
2018-10-19T16:11:20.235Z,4.10
2018-10-19T16:13:46.972Z,4.00
2018-10-19T16:16:14.128Z,4.00
2018-10-19T16:18:40.866Z,3.90
2018-10-19T16:21:07.643Z,3.90
2018-10-19T16:23:34.651Z,3.80
2018-10-19T16:26:01.595Z,3.80
2018-10-19T16:28:28.387Z,3.70
2018-10-19T16:30:55.380Z,3.70
2018-10-19T16:33:22.765Z,3.60
2018-10-19T16:35:50.204Z,3.50
2018-10-19T16:38:17.139Z,3.50
2018-10-19T16:40:44.082Z,3.50
2018-10-19T16:43:11.291Z,3.40
2018-10-19T16:45:38.080Z,3.40
2018-10-19T16:48:05.447Z,3.30
2018-10-19T16:50:32.966Z,3.30
2018-10-19T16:53:00.940Z,3.20
2018-10-19T16:55:29.346Z,3.20
2018-10-19T16:57:57.329Z,3.20
2018-10-19T17:00:24.562Z,3.10
2018-10-19T17:02:52.604Z,2.90
2018-10-19T17:05:21.510Z,2.80
2018-10-19T17:07:49.103Z,2.80
2018-10-19T17:10:16.947Z,2.70
2018-10-19T17:12:43.853Z,2.70
2018-10-19T17:15:10.653Z,2.70
2018-10-19T17:17:37.579Z,2.70
2018-10-19T17:20:04.525Z,2.60
2018-10-19T17:22:31.573Z,2.60
2018-10-19T17:25:05.499Z,2.60
2018-10-19T17:27:34.474Z,2.50
2018-10-19T17:30:01.289Z,2.50
2018-10-19T17:32:27.988Z,2.50
2018-10-19T17:34:54.737Z,2.40
2018-10-19T17:37:21.359Z,2.40
2018-10-19T17:39:48.483Z,2.40
2018-10-19T17:42:15.315Z,2.30
2018-10-19T17:44:42.050Z,2.30
2018-10-19T17:47:09.059Z,2.10
2018-10-19T17:49:35.828Z,2.20
2018-10-19T17:52:03.294Z,2.10
2018-10-19T17:54:30.074Z,2.10
2018-10-19T17:56:56.830Z,2.10
2018-10-19T17:59:23.471Z,2.10
2018-10-19T18:01:50.578Z,2.10
2018-10-19T18:04:17.321Z,2.00
2018-10-19T18:06:44.168Z,2.00
2018-10-19T18:09:11.010Z,2.00
2018-10-19T18:11:37.761Z,1.90
2018-10-19T18:14:04.569Z,1.90
2018-10-19T18:16:31.329Z,1.90
2018-10-19T18:18:58.073Z,1.80
2018-10-19T18:21:25.066Z,1.90
2018-10-19T18:23:51.732Z,1.80
2018-10-19T18:26:19.214Z,1.70
2018-10-19T18:28:45.951Z,1.60
2018-10-19T18:31:12.690Z,1.60
2018-10-19T18:33:39.428Z,1.60
2018-10-19T18:36:06.483Z,1.60
2018-10-19T18:38:33.219Z,1.60
2018-10-19T18:40:59.885Z,1.60
2018-10-19T18:43:26.704Z,1.60
2018-10-19T18:45:53.441Z,1.60
2018-10-19T18:48:20.181Z,1.60
2018-10-19T18:50:47.283Z,1.60
2018-10-19T18:53:14.975Z,1.60
2018-10-19T18:55:42.554Z,1.60
2018-10-19T18:58:09.236Z,1.50
2018-10-19T19:00:36.138Z,1.50
2018-10-19T19:03:02.877Z,1.50
2018-10-19T19:05:29.616Z,1.50
2018-10-19T19:07:56.490Z,1.50
2018-10-19T19:10:23.199Z,1.50
2018-10-19T19:12:50.250Z,1.40
2018-10-19T19:15:17.895Z,1.40
2018-10-19T19:17:45.294Z,1.40
2018-10-19T19:20:13.427Z,1.30
2018-10-19T19:22:40.157Z,1.40
2018-10-19T19:25:12.963Z,1.30
2018-10-19T19:27:39.703Z,1.30
2018-10-19T19:30:06.650Z,1.30
2018-10-19T19:32:33.593Z,1.20
2018-10-19T19:35:00.392Z,1.20
2018-10-19T19:37:27.180Z,1.10
2018-10-19T19:39:53.969Z,1.20
2018-10-19T19:45:13.911Z,1.20
2018-10-19T19:47:40.605Z,1.10
2018-10-19T19:50:08.283Z,1.10
2018-10-19T19:52:35.060Z,1.10
2018-10-19T19:55:02.010Z,1.00
2018-10-19T19:57:28.745Z,1.00
2018-10-19T19:59:55.489Z,1.00
2018-10-19T20:02:22.435Z,1.00
2018-10-19T20:04:49.482Z,1.00
2018-10-19T20:07:16.202Z,1.00
2018-10-19T20:09:42.937Z,0.90
2018-10-19T20:12:10.548Z,0.90
2018-10-19T20:14:37.470Z,0.90
2018-10-19T20:17:04.370Z,0.90
2018-10-19T20:19:31.256Z,0.90
2018-10-19T20:21:57.992Z,0.80
2018-10-19T20:24:24.724Z,0.80
2018-10-19T20:26:53.526Z,0.90
2018-10-19T20:29:21.656Z,0.80
2018-10-19T20:31:50.264Z,0.80
2018-10-19T20:34:17.226Z,0.80
2018-10-19T20:36:44.259Z,0.70
2018-10-19T20:39:10.984Z,0.70
2018-10-19T20:41:38.578Z,0.70
2018-10-19T20:44:05.360Z,0.70
2018-10-19T20:46:32.363Z,0.70
2018-10-19T20:49:00.130Z,0.60
2018-10-19T20:51:26.970Z,0.60
2018-10-19T20:53:53.644Z,0.50
2018-10-19T20:56:22.092Z,0.50
2018-10-19T20:58:48.830Z,0.50
2018-10-19T21:01:15.569Z,0.50
2018-10-19T21:03:43.332Z,0.60
2018-10-19T21:06:09.997Z,0.50
2018-10-19T21:08:36.712Z,0.60
2018-10-19T21:11:03.702Z,0.70
2018-10-19T21:13:30.572Z,0.70
2018-10-19T21:15:57.340Z,0.80
2018-10-19T21:18:24.244Z,0.80
2018-10-19T21:20:50.928Z,0.90
2018-10-19T21:23:17.738Z,0.90
2018-10-19T21:25:44.405Z,0.90
2018-10-19T21:28:11.074Z,0.90
2018-10-19T21:30:38.711Z,1.00
2018-10-19T21:33:05.482Z,1.10
2018-10-19T21:35:32.293Z,1.10
2018-10-19T21:37:59.270Z,1.10
2018-10-19T21:40:25.979Z,1.10
2018-10-19T21:42:52.722Z,1.00
2018-10-19T21:45:19.457Z,1.00
2018-10-19T21:47:46.480Z,0.90
2018-10-19T21:50:13.158Z,0.90
2018-10-19T21:52:40.088Z,0.80
2018-10-19T21:55:06.826Z,0.80
2018-10-19T21:57:33.568Z,0.70
2018-10-19T22:00:00.514Z,0.70
2018-10-19T22:02:27.251Z,0.60
2018-10-19T22:04:54.109Z,0.60
2018-10-19T22:07:20.940Z,0.70
2018-10-19T22:09:47.657Z,0.60
2018-10-19T22:12:15.135Z,0.70
2018-10-19T22:14:42.083Z,0.60
2018-10-19T22:17:08.840Z,0.60
2018-10-19T22:19:35.564Z,0.60
2018-10-19T22:22:02.405Z,0.50
2018-10-19T22:24:29.143Z,0.50
2018-10-19T22:26:55.889Z,0.50
2018-10-19T22:29:22.833Z,0.50
2018-10-19T22:31:49.569Z,0.40
2018-10-19T22:34:16.301Z,0.40
2018-10-19T22:36:43.157Z,0.40
2018-10-19T22:39:09.998Z,0.40
2018-10-19T22:41:36.735Z,0.40
2018-10-19T22:44:03.574Z,0.40
2018-10-19T22:46:30.316Z,0.40
2018-10-19T22:48:57.103Z,0.40
2018-10-19T22:51:24.007Z,0.40
2018-10-19T22:53:51.672Z,0.50
2018-10-19T22:56:19.614Z,0.40
2018-10-19T22:58:47.201Z,0.40
2018-10-19T23:01:14.017Z,0.30
2018-10-19T23:03:40.684Z,0.40
2018-10-19T23:06:07.497Z,0.30
2018-10-19T23:08:35.185Z,0.40
2018-10-19T23:11:02.953Z,0.30
2018-10-19T23:13:31.838Z,0.50
2018-10-19T23:15:59.604Z,0.50
2018-10-19T23:18:28.377Z,0.60
2018-10-19T23:20:55.621Z,0.60
2018-10-19T23:23:23.513Z,0.70
2018-10-19T23:25:50.248Z,0.60
2018-10-19T23:28:16.996Z,0.70
2018-10-19T23:30:43.684Z,0.80
2018-10-19T23:33:11.190Z,0.90
2018-10-19T23:35:37.931Z,0.80
2018-10-19T23:38:04.618Z,0.80
2018-10-19T23:40:31.510Z,0.80
2018-10-19T23:42:58.404Z,0.80
2018-10-19T23:45:25.307Z,0.90
2018-10-19T23:47:52.248Z,0.90
2018-10-19T23:50:18.960Z,0.90
2018-10-19T23:52:46.443Z,1.00
2018-10-19T23:55:13.641Z,1.00
2018-10-19T23:57:40.434Z,1.00
